Time;durP1;ratioP1;P1;durP2;ratioP2;P2;SDS_P1;SDS_P2;PMS_P1;PMS_P2;Temp;Humidity;BMP_temperature;BMP_pressure;BME280_temperature;BME280_humidity;BME280_pressure;Samples;Min_cycle;Max_cycle;Signal;HPM_P1;HPM_P2
2022/01/18 00:00:28;;;;;;;56.60;7.25;;;7.20;99.90;;;;;;5036071;28;133243;-74
2022/01/18 00:02:58;;;;;;;59.83;7.65;;;7.10;99.90;;;;;;5032292;28;20061;-73
2022/01/18 00:05:25;;;;;;;67.82;7.50;;;7.00;99.90;;;;;;5034160;28;130074;-73
2022/01/18 00:07:51;;;;;;;67.40;7.50;;;6.90;99.90;;;;;;5019513;28;20045;-72
2022/01/18 00:10:17;;;;;;;61.47;7.93;;;6.90;99.90;;;;;;5039368;28;268232;-72
2022/01/18 00:13:06;;;;;;;58.80;7.43;;;6.80;99.90;;;;;;5050277;28;20509;-72
2022/01/18 00:23:05;;;;;;;62.42;7.47;;;6.60;99.90;;;;;;5058436;28;20053;-72
2022/01/18 00:25:33;;;;;;;71.72;7.40;;;6.50;99.90;;;;;;5041927;28;256409;-72
2022/01/18 00:28:00;;;;;;;67.18;8.25;;;6.50;99.90;;;;;;5033877;28;20056;-72
2022/01/18 00:35:33;;;;;;;87.07;8.75;;;6.40;99.90;;;;;;5034632;28;256603;-72
2022/01/18 00:37:59;;;;;;;61.13;7.65;;;6.40;99.90;;;;;;5036093;28;20059;-71
2022/01/18 00:40:26;;;;;;;58.85;7.38;;;6.40;99.90;;;;;;5031385;28;273102;-72
2022/01/18 00:42:52;;;;;;;68.07;8.63;;;6.40;99.90;;;;;;5052593;28;20064;-72
2022/01/18 00:45:18;;;;;;;72.55;8.15;;;6.40;99.90;;;;;;5023954;28;154843;-72
2022/01/18 00:47:46;;;;;;;73.00;7.68;;;6.40;99.90;;;;;;5055567;28;20128;-72
2022/01/18 00:50:12;;;;;;;75.13;8.07;;;6.30;99.90;;;;;;5034639;28;269487;-72
2022/01/18 00:52:42;;;;;;;89.28;8.98;;;6.30;99.90;;;;;;5058622;28;20056;-73
2022/01/18 00:55:10;;;;;;;71.93;8.43;;;6.30;99.90;;;;;;5024568;28;75480;-72
2022/01/18 00:57:36;;;;;;;73.85;8.52;;;6.20;99.90;;;;;;5038769;28;20048;-72
2022/01/18 01:00:04;;;;;;;88.70;8.80;;;6.20;99.90;;;;;;5031334;28;259415;-72
2022/01/18 01:02:30;;;;;;;77.05;8.85;;;6.20;99.90;;;;;;5051017;28;20057;-72
2022/01/18 01:04:56;;;;;;;95.93;9.05;;;6.20;99.90;;;;;;5010374;28;179647;-72
2022/01/18 01:07:23;;;;;;;76.18;8.38;;;6.20;99.90;;;;;;5033035;28;20049;-72
2022/01/18 01:09:51;;;;;;;99.75;9.23;;;6.20;99.90;;;;;;5029147;28;272858;-72
2022/01/18 01:12:19;;;;;;;76.70;9.25;;;6.20;99.90;;;;;;5031584;28;20501;-73
2022/01/18 01:14:48;;;;;;;78.38;8.43;;;6.20;99.90;;;;;;5028707;28;20048;-72
2022/01/18 01:32:09;;;;;;;67.47;8.80;;;6.30;99.90;;;;;;5020063;28;205078;-72
2022/01/18 01:34:21;;;;;;;70.75;9.45;;;6.30;99.90;;;;;;5031982;28;20418;-72
2022/01/18 01:42:28;;;;;;;81.38;9.18;;;6.30;99.90;;;;;;5053744;28;20049;-72
2022/01/18 01:44:56;;;;;;;80.60;9.52;;;6.30;99.90;;;;;;5012607;28;73911;-72
2022/01/18 01:47:33;;;;;;;70.80;8.50;;;6.30;99.90;;;;;;5037018;28;20052;-73
2022/01/18 01:50:00;;;;;;;73.78;9.13;;;6.30;99.90;;;;;;5032313;28;253745;-72
2022/01/18 01:52:26;;;;;;;75.35;8.93;;;6.40;99.90;;;;;;5057159;28;20065;-73
2022/01/18 01:54:54;;;;;;;67.13;8.00;;;6.40;99.90;;;;;;5038236;28;251419;-72
2022/01/18 01:57:20;;;;;;;56.53;8.70;;;6.40;99.90;;;;;;5048096;28;20057;-72
2022/01/18 01:59:47;;;;;;;66.22;9.05;;;6.40;99.90;;;;;;5035350;28;271880;-72
2022/01/18 02:02:13;;;;;;;57.70;7.47;;;6.50;99.90;;;;;;5035722;28;20398;-72
2022/01/18 02:04:39;;;;;;;58.22;8.27;;;6.50;99.90;;;;;;5004671;28;133288;-72
2022/01/18 02:07:06;;;;;;;63.75;8.68;;;6.50;99.90;;;;;;5051028;28;20041;-72
2022/01/18 02:09:33;;;;;;;71.72;8.40;;;6.50;99.90;;;;;;5025455;28;20051;-72
2022/01/18 02:12:01;;;;;;;54.83;7.85;;;6.60;99.90;;;;;;5057881;28;20048;-72
2022/01/18 02:14:29;;;;;;;64.18;9.57;;;6.60;99.90;;;;;;5017841;28;101259;-72
2022/01/18 02:22:25;;;;;;;60.40;8.27;;;6.60;99.90;;;;;;5053841;28;20055;-72
2022/01/18 02:24:51;;;;;;;57.15;7.30;;;6.60;99.90;;;;;;5034942;28;261868;-72
2022/01/18 02:27:17;;;;;;;51.85;7.60;;;6.60;99.90;;;;;;5051075;28;20056;-72
2022/01/18 02:29:44;;;;;;;58.95;7.53;;;6.60;99.90;;;;;;5038405;28;271545;-72
2022/01/18 02:32:10;;;;;;;59.55;7.05;;;6.50;99.90;;;;;;5054592;28;20059;-72
2022/01/18 02:34:36;;;;;;;61.50;6.82;;;6.50;99.90;;;;;;5025734;28;20049;-72
2022/01/18 02:37:04;;;;;;;60.88;6.78;;;6.50;99.90;;;;;;5060051;28;20417;-72
2022/01/18 02:39:30;;;;;;;56.22;6.60;;;6.50;99.90;;;;;;5036646;28;247962;-72
2022/01/18 02:42:07;;;;;;;57.53;7.03;;;6.60;99.90;;;;;;5052294;28;20060;-72
2022/01/18 02:44:35;;;;;;;51.42;6.28;;;6.50;99.90;;;;;;5036098;28;181995;-72
2022/01/18 02:47:02;;;;;;;59.35;6.30;;;6.50;99.90;;;;;;5011134;28;20083;-72
2022/01/18 02:49:29;;;;;;;45.60;6.00;;;6.50;99.90;;;;;;5042290;28;36033;-72
2022/01/18 02:51:56;;;;;;;51.95;6.28;;;6.60;99.90;;;;;;5050475;28;20563;-72
2022/01/18 02:54:23;;;;;;;54.40;6.93;;;6.50;99.90;;;;;;5030083;28;200056;-72
2022/01/18 02:56:55;;;;;;;50.17;5.45;;;6.60;99.90;;;;;;5034946;28;20075;-72
2022/01/18 03:05:06;;;;;;;36.33;5.57;;;6.60;99.90;;;;;;5014936;28;272613;-73
2022/01/18 03:07:33;;;;;;;42.67;5.30;;;6.60;99.90;;;;;;5033792;28;20522;-72
2022/01/18 03:09:59;;;;;;;35.22;4.63;;;6.60;99.90;;;;;;5037503;28;187032;-72
2022/01/18 03:12:26;;;;;;;43.90;4.95;;;6.50;99.90;;;;;;5054803;28;20064;-72
2022/01/18 03:14:52;;;;;;;35.22;4.47;;;6.50;99.90;;;;;;5021278;28;208389;-72
2022/01/18 03:17:18;;;;;;;44.15;4.53;;;6.50;99.90;;;;;;5050842;28;20056;-72
2022/01/18 03:19:45;;;;;;;51.05;5.25;;;6.50;99.90;;;;;;5035956;28;31991;-72
2022/01/18 03:22:11;;;;;;;41.00;5.00;;;6.50;99.90;;;;;;5025282;28;20060;-72
2022/01/18 03:29:54;;;;;;;38.75;5.18;;;6.50;99.90;;;;;;5035577;28;253533;-67
2022/01/18 03:32:20;;;;;;;33.85;4.30;;;6.50;99.90;;;;;;5034796;28;20075;-67
2022/01/18 03:34:46;;;;;;;35.70;4.63;;;6.50;99.90;;;;;;5024647;28;151582;-67
2022/01/18 03:37:12;;;;;;;33.38;3.80;;;6.50;99.90;;;;;;5051523;28;20057;-66
2022/01/18 03:39:38;;;;;;;43.30;5.05;;;6.50;99.90;;;;;;5032432;28;224302;-67
2022/01/18 03:42:51;;;;;;;45.65;5.18;;;6.50;99.90;;;;;;5055999;28;20112;-67
2022/01/18 03:44:55;;;;;;;46.38;4.90;;;6.60;99.90;;;;;;5020770;28;77435;-67
2022/01/18 03:47:21;;;;;;;37.22;5.72;;;6.50;99.90;;;;;;5041430;28;20056;-67
2022/01/18 03:49:48;;;;;;;46.38;5.25;;;6.50;99.90;;;;;;5037027;28;236984;-67
2022/01/18 03:52:14;;;;;;;36.63;4.30;;;6.50;99.90;;;;;;5053680;28;20056;-67
2022/01/18 03:54:47;;;;;;;36.30;4.43;;;6.50;99.90;;;;;;5034209;28;140626;-67
2022/01/18 03:57:14;;;;;;;35.13;4.30;;;6.50;99.90;;;;;;5057165;28;20041;-67
2022/01/18 03:59:40;;;;;;;33.28;4.70;;;6.50;99.90;;;;;;5035971;28;37930;-67
2022/01/18 04:02:07;;;;;;;31.58;4.30;;;6.50;99.90;;;;;;5041557;28;20060;-67
2022/01/18 04:04:34;;;;;;;28.70;4.28;;;6.50;99.90;;;;;;5015360;28;265193;-67
2022/01/18 04:07:00;;;;;;;33.50;3.75;;;6.60;99.90;;;;;;5050827;28;20063;-68
2022/01/18 04:09:27;;;;;;;21.75;3.10;;;6.50;99.90;;;;;;5036807;28;256960;-67
2022/01/18 04:11:53;;;;;;;27.17;3.58;;;6.50;99.90;;;;;;5055224;28;20045;-67
2022/01/18 04:14:19;;;;;;;30.58;3.50;;;6.50;99.90;;;;;;5030276;28;92741;-67
2022/01/18 04:27:37;;;;;;;31.63;3.50;;;6.50;99.90;;;;;;5050874;28;20076;-69
2022/01/18 04:30:05;;;;;;;25.70;3.50;;;6.50;99.90;;;;;;5037288;28;94714;-68
2022/01/18 04:32:31;;;;;;;27.50;3.67;;;6.50;99.90;;;;;;5039567;28;20660;-67
2022/01/18 04:34:57;;;;;;;28.30;3.47;;;6.50;99.90;;;;;;5040438;28;23899;-67
2022/01/18 04:37:23;;;;;;;20.55;3.13;;;6.50;99.90;;;;;;5049281;28;20053;-67
2022/01/18 04:39:50;;;;;;;27.60;3.35;;;6.50;99.90;;;;;;5039159;28;51697;-67
2022/01/18 04:42:31;;;;;;;22.13;3.38;;;6.50;99.90;;;;;;5043912;28;20056;-67
2022/01/18 04:50:26;;;;;;;20.00;3.70;;;6.50;99.90;;;;;;5043057;28;251733;-67
2022/01/18 04:52:52;;;;;;;25.40;3.40;;;6.50;99.90;;;;;;5047886;28;20049;-68
2022/01/18 04:55:19;;;;;;;27.85;3.50;;;6.50;99.90;;;;;;5028408;28;141802;-67
2022/01/18 04:57:53;;;;;;;17.88;3.03;;;6.50;99.90;;;;;;5043256;28;20049;-68
2022/01/18 05:00:23;;;;;;;23.58;2.92;;;6.50;99.90;;;;;;5037673;28;253763;-66
2022/01/18 05:02:49;;;;;;;22.23;3.20;;;6.50;99.90;;;;;;5041014;28;20059;-67
2022/01/18 05:05:25;;;;;;;24.65;2.92;;;6.50;99.90;;;;;;5024802;28;84210;-67
2022/01/18 05:07:53;;;;;;;27.77;3.67;;;6.50;99.90;;;;;;5045616;28;20059;-67
2022/01/18 05:10:26;;;;;;;26.83;3.22;;;6.50;99.90;;;;;;5044485;28;273033;-68
2022/01/18 05:12:54;;;;;;;25.63;3.05;;;6.50;99.90;;;;;;5043821;28;20048;-67
2022/01/18 05:15:39;;;;;;;16.92;2.97;;;6.60;99.90;;;;;;5038120;28;256706;-68
2022/01/18 05:23:34;;;;;;;24.55;3.40;;;6.60;99.90;;;;;;5045990;28;20049;-67
2022/01/18 05:26:00;;;;;;;20.88;3.40;;;6.60;99.90;;;;;;5053340;28;20615;-67
2022/01/18 05:28:26;;;;;;;22.77;3.35;;;6.60;99.90;;;;;;5041637;28;20055;-67
2022/01/18 05:30:52;;;;;;;26.02;3.55;;;6.60;99.90;;;;;;5039956;28;268183;-67
2022/01/18 05:33:21;;;;;;;23.48;2.92;;;6.60;99.90;;;;;;5044981;28;20055;-67
2022/01/18 05:35:47;;;;;;;20.15;3.15;;;6.50;99.90;;;;;;5022626;28;96625;-67
2022/01/18 05:38:14;;;;;;;30.55;3.67;;;6.50;99.90;;;;;;5049238;28;20497;-67
2022/01/18 05:40:40;;;;;;;23.60;3.45;;;6.50;99.90;;;;;;5034421;28;274599;-68
2022/01/18 05:43:06;;;;;;;20.58;3.30;;;6.50;99.90;;;;;;5043791;28;20057;-67
2022/01/18 05:45:33;;;;;;;19.02;2.83;;;6.50;99.90;;;;;;5035402;28;261653;-68
2022/01/18 05:47:59;;;;;;;23.80;3.17;;;6.50;99.90;;;;;;5043396;28;20076;-67
2022/01/18 05:50:25;;;;;;;24.60;3.38;;;6.60;99.90;;;;;;5034807;28;256995;-67
2022/01/18 05:52:51;;;;;;;21.17;3.15;;;6.50;99.90;;;;;;5044167;28;20056;-68
2022/01/18 05:55:18;;;;;;;25.73;3.78;;;6.50;99.90;;;;;;5040598;28;268852;-67
2022/01/18 05:57:44;;;;;;;26.15;3.40;;;6.50;99.90;;;;;;5048516;28;20469;-67
2022/01/18 06:00:19;;;;;;;16.55;2.90;;;6.50;99.90;;;;;;5036051;28;104221;-67
2022/01/18 06:03:01;;;;;;;18.52;3.13;;;6.50;99.90;;;;;;5034089;28;20045;-67
2022/01/18 06:08:13;;;;;;;22.50;3.28;;;6.40;99.90;;;;;;5045977;28;20045;-67
2022/01/18 06:10:39;;;;;;;22.65;3.50;;;6.40;99.90;;;;;;5035384;28;261802;-68
2022/01/18 06:13:07;;;;;;;24.27;3.22;;;6.40;99.90;;;;;;5040815;28;20398;-67
2022/01/18 06:15:34;;;;;;;21.42;3.25;;;6.40;99.90;;;;;;5031535;28;263316;-68
2022/01/18 06:18:01;;;;;;;26.15;4.47;;;6.40;99.90;;;;;;5038591;28;20068;-67
2022/01/18 06:20:27;;;;;;;23.52;3.92;;;6.40;99.90;;;;;;5029528;28;270157;-67
2022/01/18 06:22:53;;;;;;;24.75;3.53;;;6.40;99.90;;;;;;5041496;28;20041;-67
2022/01/18 06:25:20;;;;;;;25.00;3.25;;;6.40;99.90;;;;;;5025246;28;137261;-68
2022/01/18 06:27:47;;;;;;;26.50;3.88;;;6.40;99.90;;;;;;5036392;28;20045;-68
2022/01/18 06:30:13;;;;;;;24.35;3.75;;;6.40;99.90;;;;;;5030415;28;248828;-68
2022/01/18 06:32:43;;;;;;;19.83;3.50;;;6.30;99.90;;;;;;5038714;28;20045;-68
2022/01/18 06:35:10;;;;;;;24.88;4.22;;;6.40;99.90;;;;;;5027122;28;260506;-69
2022/01/18 06:37:37;;;;;;;22.30;4.07;;;6.30;99.90;;;;;;5037320;28;20048;-68
2022/01/18 06:40:04;;;;;;;23.08;4.15;;;6.30;99.90;;;;;;5022105;28;107821;-68
2022/01/18 06:42:31;;;;;;;24.58;4.53;;;6.30;99.90;;;;;;5032641;28;20413;-69
2022/01/18 06:44:57;;;;;;;22.27;4.35;;;6.30;99.90;;;;;;5027977;28;255253;-68
2022/01/18 06:47:24;;;;;;;27.75;4.30;;;6.30;99.90;;;;;;5037616;28;20433;-69
2022/01/18 06:49:50;;;;;;;23.63;4.80;;;6.30;99.90;;;;;;5030579;28;253573;-68
2022/01/18 06:52:16;;;;;;;20.35;4.32;;;6.30;99.90;;;;;;5035740;28;20059;-68
2022/01/18 06:54:42;;;;;;;24.35;4.75;;;6.30;99.90;;;;;;5027954;28;44932;-69
2022/01/18 06:57:09;;;;;;;20.40;4.82;;;6.30;99.90;;;;;;5033449;28;20572;-68
2022/01/18 06:59:35;;;;;;;24.00;4.78;;;6.30;99.90;;;;;;5029019;28;20396;-68
2022/01/18 07:02:02;;;;;;;27.13;5.03;;;6.30;99.90;;;;;;5036912;28;20430;-68
2022/01/18 07:04:28;;;;;;;25.17;4.88;;;6.20;99.90;;;;;;5016277;28;104906;-68
2022/01/18 07:06:55;;;;;;;26.00;5.07;;;6.20;99.90;;;;;;5049260;28;20068;-68
2022/01/18 07:09:23;;;;;;;24.08;5.40;;;6.20;99.90;;;;;;5031273;28;45911;-67
2022/01/18 07:11:56;;;;;;;18.58;4.60;;;6.20;99.90;;;;;;5037539;28;20065;-67
2022/01/18 07:14:23;;;;;;;23.83;4.80;;;6.30;99.90;;;;;;5027056;28;236544;-67
2022/01/18 07:16:49;;;;;;;23.55;5.35;;;6.20;99.90;;;;;;5046530;28;20060;-68
2022/01/18 07:19:25;;;;;;;22.23;4.72;;;6.20;99.90;;;;;;5035457;28;53582;-67
2022/01/18 07:21:51;;;;;;;20.95;5.15;;;6.20;99.90;;;;;;5028360;28;20045;-67
2022/01/18 07:24:25;;;;;;;23.95;4.85;;;6.20;99.90;;;;;;5033243;28;139562;-68
2022/01/18 07:26:51;;;;;;;24.23;5.10;;;6.20;99.90;;;;;;5042475;28;20040;-68
2022/01/18 07:29:18;;;;;;;21.08;4.65;;;6.20;99.90;;;;;;5031811;28;271426;-67
2022/01/18 07:31:44;;;;;;;20.90;4.80;;;6.20;99.90;;;;;;5043913;28;20052;-67
2022/01/18 07:34:13;;;;;;;25.77;4.97;;;6.20;99.90;;;;;;5020329;28;80921;-68
2022/01/18 07:36:39;;;;;;;21.85;4.40;;;6.20;99.90;;;;;;5029726;28;20093;-68
2022/01/18 07:39:06;;;;;;;22.75;5.25;;;6.20;99.90;;;;;;5035709;28;48841;-68
2022/01/18 07:41:32;;;;;;;28.60;5.68;;;6.20;99.90;;;;;;5054799;28;20545;-68
2022/01/18 07:43:58;;;;;;;24.23;4.88;;;6.20;99.90;;;;;;5013273;28;263121;-68
2022/01/18 07:46:24;;;;;;;22.48;4.72;;;6.20;99.90;;;;;;5061039;28;20057;-68
2022/01/18 07:48:50;;;;;;;17.00;4.63;;;6.20;99.90;;;;;;5027388;28;264016;-67
2022/01/18 07:51:16;;;;;;;23.42;4.65;;;6.20;99.90;;;;;;5058404;28;20536;-68
2022/01/18 07:53:42;;;;;;;21.85;4.50;;;6.20;99.90;;;;;;5010298;28;273252;-67
2022/01/18 07:56:09;;;;;;;20.40;4.55;;;6.10;99.90;;;;;;5041792;28;20064;-67
2022/01/18 07:58:35;;;;;;;23.33;5.28;;;6.10;99.90;;;;;;5046403;28;20052;-68
2022/01/18 08:01:01;;;;;;;26.40;4.57;;;6.00;99.90;;;;;;5014794;28;252538;-67
2022/01/18 08:03:29;;;;;;;23.92;4.93;;;6.10;99.90;;;;;;5045420;28;20060;-68
2022/01/18 08:05:57;;;;;;;23.08;4.70;;;6.10;99.90;;;;;;5000505;28;152740;-67
2022/01/18 08:08:25;;;;;;;24.45;4.60;;;6.10;99.90;;;;;;5043764;28;20056;-67
2022/01/18 08:10:52;;;;;;;22.58;5.22;;;6.10;99.90;;;;;;5009971;28;128980;-67
2022/01/18 08:13:23;;;;;;;24.83;5.20;;;6.10;99.90;;;;;;5043251;28;20045;-67
2022/01/18 08:15:58;;;;;;;21.23;4.88;;;6.10;99.90;;;;;;5043610;28;155214;-67
2022/01/18 08:18:24;;;;;;;19.70;4.53;;;6.20;99.90;;;;;;5042693;28;20049;-68
2022/01/18 08:20:50;;;;;;;24.42;4.32;;;6.20;99.90;;;;;;5030318;28;100714;-67
2022/01/18 08:23:16;;;;;;;25.38;4.70;;;6.20;99.90;;;;;;5042925;28;20064;-67
2022/01/18 08:25:44;;;;;;;21.63;4.40;;;6.20;99.90;;;;;;5037100;28;270067;-67
2022/01/18 08:28:10;;;;;;;23.35;4.25;;;6.20;99.90;;;;;;5025482;28;20057;-67
2022/01/18 08:30:37;;;;;;;22.42;4.03;;;6.20;99.90;;;;;;5028507;28;271276;-68
2022/01/18 08:33:03;;;;;;;19.30;4.03;;;6.30;99.90;;;;;;5031834;28;20065;-68
2022/01/18 08:35:31;;;;;;;18.27;4.10;;;6.30;99.90;;;;;;5018886;28;147139;-68
2022/01/18 08:37:57;;;;;;;22.27;4.55;;;6.30;99.90;;;;;;5033251;28;20056;-67
2022/01/18 08:40:23;;;;;;;19.40;3.40;;;6.40;99.90;;;;;;5025903;28;260395;-67
2022/01/18 08:42:50;;;;;;;20.77;3.95;;;6.40;99.90;;;;;;5034610;28;20498;-67
2022/01/18 08:45:16;;;;;;;19.00;3.60;;;6.40;99.90;;;;;;5026357;28;279098;-67
2022/01/18 08:47:42;;;;;;;21.42;3.70;;;6.40;99.90;;;;;;5032036;28;20073;-67
2022/01/18 08:50:08;;;;;;;18.90;4.03;;;6.40;99.90;;;;;;5016722;28;195513;-67
2022/01/18 08:52:34;;;;;;;19.73;4.03;;;6.40;99.90;;;;;;5032117;28;20051;-67
2022/01/18 08:55:01;;;;;;;27.30;4.15;;;6.50;99.90;;;;;;5017065;28;186055;-67
2022/01/18 08:57:27;;;;;;;21.02;4.10;;;6.50;99.90;;;;;;5032608;28;20068;-68
2022/01/18 08:59:53;;;;;;;21.88;4.40;;;6.50;99.90;;;;;;5023207;28;253625;-67
2022/01/18 09:02:20;;;;;;;22.77;4.00;;;6.60;99.90;;;;;;5029236;28;20057;-67
2022/01/18 09:04:46;;;;;;;22.08;3.78;;;6.60;99.90;;;;;;5003951;28;154223;-67
2022/01/18 09:07:12;;;;;;;26.58;4.10;;;6.60;99.90;;;;;;5025344;28;20053;-67
2022/01/18 09:09:42;;;;;;;23.45;4.45;;;6.60;99.90;;;;;;5021756;28;257211;-67
2022/01/18 09:12:10;;;;;;;23.75;4.90;;;6.70;99.90;;;;;;5030558;28;20437;-67
2022/01/18 09:14:38;;;;;;;25.88;4.47;;;6.60;99.90;;;;;;5023833;28;23468;-66
2022/01/18 09:17:04;;;;;;;29.27;5.00;;;6.60;99.90;;;;;;5039856;28;20053;-67
2022/01/18 09:19:30;;;;;;;22.35;4.68;;;6.70;99.90;;;;;;5017790;28;254948;-67
2022/01/18 09:21:58;;;;;;;26.02;5.40;;;6.70;99.90;;;;;;5040408;28;20045;-67
2022/01/18 09:24:25;;;;;;;20.63;4.90;;;6.70;99.90;;;;;;5014940;28;235020;-67
2022/01/18 09:26:53;;;;;;;23.55;5.63;;;6.70;99.90;;;;;;5064929;22;20072;-72
2022/01/18 09:29:20;;;;;;;23.80;6.10;;;6.70;99.90;;;;;;5030589;28;260563;-73
2022/01/18 09:31:46;;;;;;;27.95;6.82;;;6.70;99.90;;;;;;5052554;28;20037;-72
2022/01/18 09:34:12;;;;;;;26.38;6.97;;;6.70;99.90;;;;;;5016256;28;145310;-72
2022/01/18 09:36:38;;;;;;;22.17;6.78;;;6.70;99.90;;;;;;5041494;28;20041;-72
2022/01/18 09:39:04;;;;;;;23.38;6.47;;;6.80;99.90;;;;;;5021542;28;100647;-73
2022/01/18 09:41:37;;;;;;;24.67;7.45;;;6.80;99.90;;;;;;5052430;28;20052;-72
2022/01/18 09:44:03;;;;;;;28.38;7.13;;;6.80;99.90;;;;;;5030408;28;175130;-72
2022/01/18 09:46:29;;;;;;;25.58;6.65;;;6.80;99.90;;;;;;5035680;28;20056;-74
2022/01/18 09:48:56;;;;;;;29.23;7.22;;;6.90;99.90;;;;;;5017000;28;260455;-73
2022/01/18 09:51:23;;;;;;;26.55;7.22;;;6.90;99.90;;;;;;5054186;28;20040;-72
2022/01/18 09:53:51;;;;;;;25.23;6.68;;;6.80;99.90;;;;;;5034100;28;269268;-73
2022/01/18 09:56:17;;;;;;;21.58;6.13;;;6.90;99.90;;;;;;5052673;28;20517;-73
2022/01/18 09:58:44;;;;;;;19.80;5.93;;;6.90;99.90;;;;;;5033704;28;244374;-73
2022/01/18 10:01:11;;;;;;;23.50;6.90;;;7.00;99.90;;;;;;5059672;28;20029;-74
2022/01/18 10:03:41;;;;;;;22.27;5.97;;;7.00;99.90;;;;;;5041127;28;257710;-74
2022/01/18 10:06:08;;;;;;;21.38;6.15;;;7.00;99.90;;;;;;5033503;28;143122;-73
2022/01/18 10:08:38;;;;;;;20.75;5.72;;;7.00;99.90;;;;;;5053358;28;20052;-73
2022/01/18 10:11:15;;;;;;;24.55;6.68;;;7.00;99.90;;;;;;5025407;28;20452;-73
2022/01/18 10:13:47;;;;;;;22.20;6.57;;;7.10;99.90;;;;;;5016583;28;254630;-73
2022/01/18 10:16:20;;;;;;;23.98;7.13;;;7.10;99.90;;;;;;5050666;28;20418;-75
2022/01/18 10:19:06;;;;;;;19.07;6.53;;;7.20;99.90;;;;;;5033751;28;251855;-74
2022/01/18 10:21:41;;;;;;;22.50;6.72;;;7.20;99.90;;;;;;5055940;28;20041;-74
2022/01/18 10:24:12;;;;;;;26.25;7.13;;;7.20;99.90;;;;;;5031100;28;272600;-73
2022/01/18 10:26:43;;;;;;;23.10;6.75;;;7.30;99.90;;;;;;5045267;28;20063;-74
2022/01/18 10:29:10;;;;;;;25.65;6.95;;;7.30;99.90;;;;;;5015976;28;184044;-74
2022/01/18 10:31:59;;;;;;;21.60;7.00;;;7.40;99.90;;;;;;5051508;28;20045;-73
2022/01/18 10:37:09;;;;;;;25.98;6.22;;;7.40;99.90;;;;;;5030861;28;20464;-73
2022/01/18 10:39:38;;;;;;;18.10;5.68;;;7.30;99.90;;;;;;5023021;28;20045;-73
2022/01/18 10:42:22;;;;;;;22.48;5.35;;;7.30;99.90;;;;;;5033192;28;20052;-72
2022/01/18 10:44:59;;;;;;;20.77;5.53;;;7.20;99.90;;;;;;5016459;28;169713;-73
2022/01/18 10:47:26;;;;;;;25.83;4.95;;;7.30;99.90;;;;;;5032264;28;20054;-73
2022/01/18 10:49:52;;;;;;;23.85;4.55;;;7.20;99.90;;;;;;5031125;28;271025;-73
2022/01/18 10:52:26;;;;;;;23.77;3.65;;;7.30;99.90;;;;;;5050905;28;20056;-72
2022/01/18 10:54:58;;;;;;;18.13;3.40;;;7.30;99.90;;;;;;5026559;28;20049;-73
2022/01/18 10:57:25;;;;;;;14.27;3.30;;;7.40;99.90;;;;;;5034063;28;20053;-74
2022/01/18 10:59:57;;;;;;;17.38;3.67;;;7.40;99.90;;;;;;5024177;28;20045;-74
2022/01/18 11:02:23;;;;;;;20.27;3.40;;;7.40;99.90;;;;;;5033284;28;20061;-73
2022/01/18 11:04:52;;;;;;;19.27;4.05;;;7.40;99.90;;;;;;5009048;28;107784;-74
2022/01/18 11:07:21;;;;;;;21.50;4.07;;;7.40;99.90;;;;;;5032412;28;20055;-73
2022/01/18 11:09:48;;;;;;;16.50;3.65;;;7.30;99.90;;;;;;5008092;28;20317;-73
2022/01/18 11:12:14;;;;;;;18.85;3.83;;;7.30;99.90;;;;;;5033627;28;20057;-74
2022/01/18 11:14:45;;;;;;;18.77;3.83;;;7.40;99.90;;;;;;5016454;28;252772;-74
2022/01/18 11:17:21;;;;;;;22.38;4.15;;;7.50;99.90;;;;;;5034438;28;20045;-73
2022/01/18 11:19:50;;;;;;;17.77;3.25;;;7.50;99.90;;;;;;5036246;28;253314;-73
2022/01/18 11:22:16;;;;;;;18.67;3.53;;;7.50;99.90;;;;;;5037192;28;20056;-74
2022/01/18 11:24:45;;;;;;;17.25;3.35;;;7.50;99.90;;;;;;5015189;28;188945;-73
2022/01/18 11:27:14;;;;;;;17.38;3.90;;;7.50;99.90;;;;;;5052118;28;20049;-73
2022/01/18 11:29:41;;;;;;;14.13;3.22;;;7.60;99.90;;;;;;5039270;28;20064;-73
2022/01/18 11:32:10;;;;;;;19.65;3.90;;;7.60;99.90;;;;;;5034810;28;20071;-73
2022/01/18 11:34:55;;;;;;;18.13;3.80;;;7.60;99.90;;;;;;5019423;28;99664;-73
2022/01/18 11:37:44;;;;;;;14.23;3.53;;;7.60;99.90;;;;;;5033134;28;20521;-73
2022/01/18 11:40:13;;;;;;;19.23;3.58;;;7.60;99.90;;;;;;5021689;28;20053;-74
2022/01/18 11:42:56;;;;;;;19.95;4.05;;;7.50;99.90;;;;;;5051185;28;20059;-75
2022/01/18 11:45:25;;;;;;;13.98;2.97;;;7.60;99.90;;;;;;5016280;28;171745;-74
2022/01/18 11:48:18;;;;;;;16.85;3.28;;;7.50;99.90;;;;;;5031455;28;20056;-75
2022/01/18 11:51:05;;;;;;;14.70;2.80;;;7.50;99.90;;;;;;5021525;28;20052;-74
2022/01/18 11:56:35;;;;;;;14.23;2.33;;;7.60;99.90;;;;;;5022069;28;20045;-73
2022/01/18 11:59:25;;;;;;;15.60;2.30;;;7.60;99.90;;;;;;5022306;28;80440;-73
2022/01/18 12:01:56;;;;;;;15.57;2.88;;;7.60;99.90;;;;;;5038280;28;20489;-74
2022/01/18 12:07:36;;;;;;;17.58;3.00;;;7.60;99.90;;;;;;5047242;28;20378;-75
2022/01/18 12:10:34;;;;;;;20.33;3.17;;;7.60;99.90;;;;;;5035534;28;274466;-73
2022/01/18 12:13:11;;;;;;;14.88;2.50;;;7.70;99.90;;;;;;5056650;28;20401;-74
2022/01/18 12:15:38;;;;;;;16.00;2.63;;;7.70;99.90;;;;;;5034742;28;272972;-74
2022/01/18 12:18:10;;;;;;;14.98;2.60;;;7.60;99.90;;;;;;5056720;28;20056;-74
2022/01/18 12:20:48;;;;;;;15.15;2.78;;;7.60;99.90;;;;;;5019264;28;240012;-73
2022/01/18 12:23:21;;;;;;;17.60;3.05;;;7.60;99.90;;;;;;5055099;28;20053;-73
2022/01/18 12:34:38;;;;;;;18.70;3.40;;;7.50;99.90;;;;;;5023182;28;73292;-73
2022/01/18 12:44:59;;;;;;;14.77;4.20;;;7.40;99.90;;;;;;5021186;28;185355;-73
2022/01/18 12:47:26;;;;;;;21.38;4.47;;;7.40;99.90;;;;;;5054994;28;20044;-73
2022/01/18 12:49:52;;;;;;;18.55;4.60;;;7.40;99.90;;;;;;5022980;28;58061;-74
2022/01/18 12:52:19;;;;;;;18.13;4.38;;;7.40;99.90;;;;;;5035523;28;20048;-73
2022/01/18 12:54:48;;;;;;;17.15;4.40;;;7.40;99.90;;;;;;5034312;28;262666;-73
2022/01/18 12:57:18;;;;;;;17.83;4.50;;;7.40;99.90;;;;;;5037360;28;20421;-74
2022/01/18 13:00:09;;;;;;;15.85;4.38;;;7.40;99.90;;;;;;5023926;28;95853;-74
2022/01/18 13:02:35;;;;;;;19.13;4.55;;;7.40;99.90;;;;;;5053284;28;20063;-73
2022/01/18 13:05:04;;;;;;;23.63;4.90;;;7.40;99.90;;;;;;5008691;28;130125;-73
2022/01/18 13:07:30;;;;;;;20.60;5.32;;;7.40;99.90;;;;;;5052809;28;20065;-74
2022/01/18 13:10:03;;;;;;;21.92;5.05;;;7.50;99.90;;;;;;5026886;28;63403;-73
2022/01/18 13:12:43;;;;;;;18.52;5.68;;;7.50;99.90;;;;;;5046675;28;20054;-74
2022/01/18 13:15:13;;;;;;;21.97;6.00;;;7.50;99.90;;;;;;5000198;28;255405;-73
2022/01/18 13:26:30;;;;;;;19.20;6.13;;;8.40;99.90;;;;;;4978456;28;20038;-73
2022/01/18 13:29:10;;;;;;;18.67;5.57;;;8.40;99.90;;;;;;4962775;28;196833;-73
2022/01/18 13:31:36;;;;;;;20.42;5.45;;;8.30;99.90;;;;;;4981979;28;20182;-73
2022/01/18 13:34:04;;;;;;;23.48;5.50;;;8.20;99.90;;;;;;4961451;28;20657;-74
2022/01/18 13:36:32;;;;;;;25.52;6.18;;;8.20;99.90;;;;;;4969851;28;20442;-74
2022/01/18 13:39:47;;;;;;;22.67;6.25;;;8.20;99.90;;;;;;4941240;28;199622;-74
2022/01/18 13:42:16;;;;;;;21.80;6.00;;;8.10;99.90;;;;;;4932491;29;20047;-73
2022/01/18 13:45:12;;;;;;;26.40;6.78;;;8.00;99.90;;;;;;4916217;28;140570;-71
2022/01/18 13:48:00;;;;;;;21.00;6.45;;;8.00;99.90;;;;;;4944967;28;20533;-75
2022/01/18 13:51:05;;;;;;;23.33;6.65;;;8.00;99.90;;;;;;4905978;28;250306;-73
2022/01/18 13:53:33;;;;;;;18.42;6.13;;;8.10;99.90;;;;;;4946026;28;20043;-73
2022/01/18 13:56:01;;;;;;;20.58;4.90;;;8.00;99.90;;;;;;4920212;28;29964;-73
2022/01/18 13:58:39;;;;;;;25.42;5.63;;;8.00;99.90;;;;;;4935985;28;20061;-74
2022/01/18 14:01:10;;;;;;;21.35;5.47;;;8.00;99.90;;;;;;4960314;28;20050;-73
2022/01/18 14:03:39;;;;;;;21.27;5.53;;;8.00;99.90;;;;;;4983889;28;20069;-72
2022/01/18 14:06:06;;;;;;;24.45;5.35;;;7.80;99.90;;;;;;4943317;28;77425;-72
2022/01/18 14:08:38;;;;;;;16.13;5.07;;;7.70;99.90;;;;;;4967958;28;20062;-72
2022/01/18 14:11:07;;;;;;;23.60;5.72;;;7.70;99.90;;;;;;4940913;28;20057;-73
2022/01/18 14:13:37;;;;;;;22.75;5.60;;;7.70;99.90;;;;;;4982421;28;20053;-72
2022/01/18 14:16:19;;;;;;;20.45;5.03;;;7.60;99.90;;;;;;4958746;28;20042;-73
2022/01/18 14:19:01;;;;;;;22.67;5.35;;;7.60;99.90;;;;;;4999689;28;250887;-72
2022/01/18 14:21:44;;;;;;;20.63;5.38;;;7.60;99.90;;;;;;5027399;28;20060;-72
2022/01/18 14:24:12;;;;;;;22.58;6.45;;;7.60;99.90;;;;;;5043167;28;198309;-73
2022/01/18 14:27:00;;;;;;;21.80;6.50;;;7.50;99.90;;;;;;5046476;28;20052;-72
2022/01/18 14:29:27;;;;;;;20.38;5.97;;;7.40;99.90;;;;;;5026920;28;247228;-74
2022/01/18 14:32:02;;;;;;;26.55;6.93;;;7.40;99.90;;;;;;5044273;28;20068;-73
2022/01/18 14:34:30;;;;;;;21.88;6.90;;;7.40;99.90;;;;;;5042741;28;189250;-74
2022/01/18 14:36:56;;;;;;;27.80;7.15;;;7.40;99.90;;;;;;5036228;28;21187;-73
2022/01/18 14:39:22;;;;;;;24.25;6.72;;;7.30;99.90;;;;;;5019094;28;167168;-73
2022/01/18 14:41:56;;;;;;;26.42;6.40;;;7.30;99.90;;;;;;5036872;28;20041;-74